createdAt,value
2023-05-13T00:02:08.390Z,61.92
2023-05-13T00:04:35.041Z,61.77
2023-05-13T00:07:01.792Z,62.34
2023-05-13T00:09:28.426Z,61.63
2023-05-13T00:11:55.013Z,62.21
2023-05-13T00:14:21.998Z,62.68
2023-05-13T00:16:48.650Z,63.66
2023-05-13T00:19:15.433Z,62.91
2023-05-13T00:21:42.145Z,63.64
2023-05-13T00:24:08.796Z,63.75
2023-05-13T00:26:35.435Z,63.08
2023-05-13T00:29:02.059Z,63.02
2023-05-13T00:31:28.838Z,63.47
2023-05-13T00:33:55.498Z,64.04
2023-05-13T00:36:22.104Z,63.90
2023-05-13T00:38:48.769Z,63.62
2023-05-13T00:41:15.483Z,64.00
2023-05-13T00:43:42.064Z,64.25
2023-05-13T00:46:08.793Z,65.16
2023-05-13T00:48:35.549Z,64.95
2023-05-13T00:51:02.313Z,65.55
2023-05-13T00:53:29.588Z,65.93
2023-05-13T00:55:56.389Z,65.98
2023-05-13T00:58:23.005Z,66.72
2023-05-13T01:01:26.970Z,66.49
2023-05-13T01:04:16.518Z,67.01
2023-05-13T01:06:58.274Z,67.39
2023-05-13T01:09:41.064Z,67.98
2023-05-13T01:12:11.304Z,68.56
2023-05-13T01:14:57.188Z,67.80
2023-05-13T01:17:32.284Z,68.32
2023-05-13T01:20:03.463Z,68.00
2023-05-13T01:22:30.150Z,68.57
2023-05-13T01:24:56.922Z,68.44
2023-05-13T01:27:23.727Z,68.79
2023-05-13T01:29:50.761Z,69.91
2023-05-13T01:32:18.954Z,69.61
2023-05-13T01:34:47.107Z,69.93
2023-05-13T01:37:13.850Z,69.97
2023-05-13T01:39:41.655Z,70.50
2023-05-13T01:42:08.592Z,69.92
2023-05-13T01:44:35.810Z,70.43
2023-05-13T01:47:02.442Z,70.78
2023-05-13T01:49:29.031Z,70.79
2023-05-13T01:51:55.834Z,71.84
2023-05-13T01:54:22.396Z,71.96
2023-05-13T01:56:49.095Z,72.80
2023-05-13T01:59:16.022Z,72.39
2023-05-13T02:01:42.856Z,71.43
2023-05-13T02:04:09.465Z,72.04
2023-05-13T02:06:36.274Z,72.69
2023-05-13T02:09:03.180Z,73.20
2023-05-13T02:11:29.827Z,73.97
2023-05-13T02:13:56.511Z,73.14
2023-05-13T02:16:23.186Z,74.02
2023-05-13T02:18:49.839Z,72.71
2023-05-13T02:21:16.536Z,74.39
2023-05-13T02:23:43.209Z,73.73
2023-05-13T02:26:09.807Z,73.56
2023-05-13T02:28:36.834Z,74.16
2023-05-13T02:31:03.444Z,73.76
2023-05-13T02:33:30.045Z,73.99
2023-05-13T02:35:56.649Z,74.33
2023-05-13T02:38:23.259Z,73.66
2023-05-13T02:40:49.867Z,74.59
2023-05-13T02:43:16.469Z,74.65
2023-05-13T02:45:43.851Z,75.32
2023-05-13T02:48:11.177Z,74.86
2023-05-13T02:50:38.023Z,74.16
2023-05-13T02:53:04.595Z,73.31
2023-05-13T02:55:31.277Z,74.47
2023-05-13T02:57:57.908Z,74.72
2023-05-13T03:00:24.589Z,73.25
2023-05-13T03:02:51.352Z,74.43
2023-05-13T03:05:18.019Z,75.70
2023-05-13T03:07:44.620Z,75.02
2023-05-13T03:10:11.214Z,75.58
2023-05-13T03:12:37.891Z,76.56
2023-05-13T03:15:04.773Z,76.30
2023-05-13T03:17:32.105Z,75.89
2023-05-13T03:19:58.754Z,74.49
2023-05-13T03:22:25.351Z,74.23
2023-05-13T03:24:51.953Z,75.11
2023-05-13T03:27:19.315Z,76.07
2023-05-13T03:29:45.891Z,75.63
2023-05-13T03:32:12.460Z,75.25
2023-05-13T03:34:39.254Z,76.41
2023-05-13T03:37:05.921Z,75.05
2023-05-13T03:39:32.529Z,76.57
2023-05-13T03:41:59.279Z,76.03
2023-05-13T03:44:26.273Z,77.17
2023-05-13T03:46:52.873Z,76.15
2023-05-13T03:49:19.654Z,76.69
2023-05-13T03:51:46.292Z,77.65
2023-05-13T03:54:12.877Z,77.31
2023-05-13T03:56:39.431Z,76.95
2023-05-13T03:59:06.016Z,76.39
2023-05-13T04:01:32.592Z,76.31
2023-05-13T04:03:59.248Z,78.76
2023-05-13T04:06:25.861Z,75.92
2023-05-13T04:08:52.490Z,77.08
2023-05-13T04:11:19.109Z,77.80
2023-05-13T04:13:46.118Z,77.71
2023-05-13T04:16:12.768Z,77.34
2023-05-13T04:18:39.369Z,77.19
2023-05-13T04:21:09.955Z,75.98
2023-05-13T04:23:36.642Z,75.49
2023-05-13T04:26:03.302Z,78.17
2023-05-13T04:28:30.012Z,78.00
2023-05-13T04:30:56.633Z,77.46
2023-05-13T04:33:23.210Z,75.25
2023-05-13T04:35:49.859Z,76.21
2023-05-13T04:38:16.428Z,73.94
2023-05-13T04:40:44.386Z,74.19
2023-05-13T04:43:14.365Z,73.63
2023-05-13T04:45:41.320Z,73.30
2023-05-13T04:48:08.258Z,72.56
2023-05-13T04:50:34.953Z,71.13
2023-05-13T04:53:01.997Z,71.56
2023-05-13T04:55:28.583Z,69.23
2023-05-13T04:57:55.295Z,69.03
2023-05-13T05:00:22.045Z,70.33
2023-05-13T05:02:48.950Z,68.96
2023-05-13T05:05:18.184Z,70.81
2023-05-13T05:07:45.249Z,66.58
2023-05-13T05:10:11.905Z,66.13
2023-05-13T05:12:38.600Z,64.03
2023-05-13T05:15:06.414Z,63.96
2023-05-13T05:17:34.106Z,63.30
2023-05-13T05:20:00.876Z,61.79
2023-05-13T05:22:27.537Z,61.12
2023-05-13T05:24:54.129Z,59.52
2023-05-13T05:27:20.733Z,59.04
2023-05-13T05:29:47.322Z,58.66
2023-05-13T05:32:14.052Z,56.40
2023-05-13T05:34:41.016Z,58.40
2023-05-13T05:37:07.684Z,55.81
2023-05-13T05:39:35.289Z,56.44
2023-05-13T05:42:02.149Z,55.94
2023-05-13T05:44:28.955Z,55.92
2023-05-13T05:46:55.647Z,53.74
2023-05-13T05:49:22.270Z,54.79
2023-05-13T05:51:48.933Z,53.24
2023-05-13T05:54:15.523Z,52.03
2023-05-13T05:56:42.614Z,50.67
2023-05-13T05:59:09.269Z,50.22
2023-05-13T06:01:36.932Z,49.13
2023-05-13T06:04:04.381Z,48.79
2023-05-13T06:06:32.368Z,48.80
2023-05-13T06:08:59.148Z,49.05
2023-05-13T06:11:26.309Z,48.33
2023-05-13T06:13:54.277Z,47.80
2023-05-13T06:16:20.924Z,46.41
2023-05-13T06:18:47.656Z,46.54
2023-05-13T06:21:14.293Z,47.32
2023-05-13T06:23:41.053Z,45.59
2023-05-13T06:26:07.752Z,45.26
2023-05-13T06:28:34.324Z,44.54
2023-05-13T06:31:00.946Z,44.94
2023-05-13T06:33:27.613Z,44.28
2023-05-13T06:35:54.324Z,43.96
2023-05-13T06:38:21.122Z,42.20
2023-05-13T06:40:47.926Z,42.61
2023-05-13T06:43:16.449Z,42.45
2023-05-13T06:45:43.199Z,42.46
2023-05-13T06:48:10.233Z,41.27
2023-05-13T06:50:36.908Z,40.84
2023-05-13T06:53:03.531Z,40.24
2023-05-13T06:55:30.167Z,41.11
2023-05-13T06:57:56.876Z,40.08
2023-05-13T07:00:24.092Z,40.07
2023-05-13T07:02:50.954Z,37.38
2023-05-13T07:05:17.730Z,37.90
2023-05-13T07:07:44.403Z,37.47
2023-05-13T07:10:11.182Z,37.05
2023-05-13T07:12:37.808Z,36.62
2023-05-13T07:15:05.412Z,36.52
2023-05-13T07:17:32.274Z,35.43
2023-05-13T07:19:59.309Z,34.13
2023-05-13T07:22:25.896Z,33.26
2023-05-13T07:24:52.501Z,34.07
2023-05-13T07:27:19.205Z,35.50
2023-05-13T07:29:45.965Z,34.50
2023-05-13T07:32:12.582Z,32.75
2023-05-13T07:34:39.566Z,34.15
2023-05-13T07:37:06.244Z,34.03
2023-05-13T07:39:32.849Z,32.87
2023-05-13T07:41:59.520Z,33.08
2023-05-13T07:44:26.603Z,32.83
2023-05-13T07:46:53.810Z,34.29
2023-05-13T07:49:22.688Z,33.13
2023-05-13T07:51:49.350Z,32.46
2023-05-13T07:54:15.941Z,33.38
2023-05-13T07:56:44.371Z,32.22
2023-05-13T07:59:11.178Z,32.48
2023-05-13T08:01:38.045Z,32.81
2023-05-13T08:04:04.879Z,31.39
2023-05-13T08:06:32.794Z,31.30
2023-05-13T08:08:59.841Z,32.10
2023-05-13T08:11:26.920Z,31.81
2023-05-13T08:13:54.921Z,31.87
2023-05-13T08:16:21.718Z,33.36
2023-05-13T08:18:48.368Z,32.17
2023-05-13T08:21:15.102Z,32.99
2023-05-13T08:23:45.789Z,32.52
2023-05-13T08:26:13.893Z,33.33
2023-05-13T08:28:42.458Z,31.98
2023-05-13T08:31:12.078Z,31.96
2023-05-13T08:33:39.902Z,31.99
2023-05-13T08:36:06.998Z,32.20
2023-05-13T08:38:33.719Z,32.27
2023-05-13T08:41:00.482Z,33.07
2023-05-13T08:43:28.585Z,32.94
2023-05-13T08:45:56.743Z,32.55
2023-05-13T08:48:24.379Z,33.11
2023-05-13T08:50:51.264Z,33.35
2023-05-13T08:53:18.881Z,33.79
2023-05-13T08:55:45.720Z,33.21
2023-05-13T08:58:12.638Z,33.26
2023-05-13T09:00:39.845Z,33.67
2023-05-13T09:03:07.176Z,32.38
2023-05-13T09:05:35.730Z,32.66
2023-05-13T09:08:10.851Z,32.26
2023-05-13T09:10:37.681Z,32.89
2023-05-13T09:13:04.869Z,33.03
2023-05-13T09:15:32.213Z,33.34
2023-05-13T09:18:01.770Z,33.10
2023-05-13T09:20:29.128Z,32.42
2023-05-13T09:23:00.799Z,32.98
2023-05-13T09:25:28.338Z,32.31
2023-05-13T09:28:00.457Z,32.23
2023-05-13T09:30:33.584Z,31.98
2023-05-13T09:33:11.304Z,31.59
2023-05-13T09:35:40.592Z,30.77
2023-05-13T09:38:14.528Z,31.29
2023-05-13T09:40:41.878Z,30.16
2023-05-13T09:43:08.851Z,30.48
2023-05-13T09:45:36.286Z,30.21
2023-05-13T09:48:03.419Z,31.02
2023-05-13T09:50:31.737Z,29.47
2023-05-13T09:52:58.532Z,28.61
2023-05-13T09:55:25.128Z,27.48
2023-05-13T09:57:53.346Z,27.76
2023-05-13T10:00:31.705Z,27.98
2023-05-13T10:03:01.329Z,26.84
2023-05-13T10:05:28.001Z,27.82
2023-05-13T10:07:55.880Z,27.27
2023-05-13T10:10:23.040Z,27.05
2023-05-13T10:12:51.022Z,27.16
2023-05-13T10:15:18.659Z,26.81
2023-05-13T10:17:46.657Z,28.17
2023-05-13T10:20:13.909Z,25.89
2023-05-13T10:22:41.021Z,26.80
2023-05-13T10:25:08.747Z,27.21
2023-05-13T10:27:35.322Z,27.46
2023-05-13T10:30:03.906Z,25.20
2023-05-13T10:32:31.650Z,25.52
2023-05-13T10:35:13.731Z,25.15
2023-05-13T10:37:59.087Z,27.06
2023-05-13T10:40:47.123Z,25.89
2023-05-13T10:43:25.681Z,27.22
2023-05-13T10:46:04.363Z,25.51
2023-05-13T10:48:59.338Z,26.17
2023-05-13T10:51:26.681Z,25.61
2023-05-13T10:53:58.947Z,26.84
2023-05-13T10:56:27.943Z,24.71
2023-05-13T10:59:07.000Z,24.49
2023-05-13T11:01:43.932Z,24.67
2023-05-13T11:04:20.369Z,23.32
2023-05-13T11:06:50.869Z,23.35
2023-05-13T11:09:20.464Z,23.65
2023-05-13T11:11:48.544Z,23.31
2023-05-13T11:14:23.894Z,23.96
2023-05-13T11:17:19.196Z,24.28
2023-05-13T11:19:51.057Z,24.08
2023-05-13T11:22:22.466Z,24.16
2023-05-13T11:25:09.853Z,23.10
2023-05-13T11:27:42.270Z,23.72
2023-05-13T11:30:22.683Z,22.54
2023-05-13T11:32:57.312Z,23.47
2023-05-13T11:35:31.840Z,23.01
2023-05-13T11:38:00.633Z,22.14
2023-05-13T11:40:37.684Z,24.53
2023-05-13T11:43:07.543Z,22.28
2023-05-13T11:45:39.380Z,23.19
2023-05-13T11:48:33.881Z,22.67
2023-05-13T11:51:00.553Z,23.27
2023-05-13T11:53:27.689Z,23.43
2023-05-13T11:55:55.602Z,23.76
2023-05-13T11:58:35.036Z,24.13
2023-05-13T12:01:04.821Z,23.89
2023-05-13T12:03:32.005Z,23.74
2023-05-13T12:11:41.381Z,23.06
2023-05-13T12:14:16.006Z,23.28
2023-05-13T12:16:56.840Z,23.76
2023-05-13T12:19:23.471Z,22.58
2023-05-13T12:21:51.683Z,23.35
2023-05-13T12:24:29.811Z,22.81
2023-05-13T12:27:11.652Z,23.17
2023-05-13T12:29:47.774Z,22.37
2023-05-13T12:32:16.924Z,23.14
2023-05-13T12:34:53.370Z,22.16
2023-05-13T12:37:25.389Z,22.89
2023-05-13T12:40:09.535Z,23.01
2023-05-13T12:42:36.184Z,23.36
2023-05-13T12:45:03.417Z,22.94
2023-05-13T12:47:30.078Z,23.96
2023-05-13T12:49:59.957Z,23.33
2023-05-13T12:52:26.813Z,23.03
2023-05-13T12:54:53.438Z,22.32
2023-05-13T12:57:20.665Z,22.70
2023-05-13T12:59:47.301Z,24.32
2023-05-13T13:02:13.906Z,22.92
2023-05-13T13:04:40.817Z,23.53
2023-05-13T13:07:11.995Z,26.36
2023-05-13T13:09:38.726Z,25.48
2023-05-13T13:12:05.782Z,26.32
2023-05-13T13:14:32.370Z,26.27
2023-05-13T13:16:58.953Z,25.79
2023-05-13T13:19:25.673Z,26.08
2023-05-13T13:21:52.374Z,27.12
2023-05-13T13:24:19.019Z,26.68
2023-05-13T13:26:45.906Z,26.87
2023-05-13T13:29:12.512Z,26.61
2023-05-13T13:31:39.194Z,27.01
2023-05-13T13:34:06.150Z,28.27
2023-05-13T13:36:32.978Z,27.74
2023-05-13T13:38:59.604Z,27.59
2023-05-13T13:41:26.318Z,26.81
2023-05-13T13:43:52.967Z,25.98
2023-05-13T13:46:20.090Z,26.17
2023-05-13T13:48:46.747Z,27.18
2023-05-13T13:51:13.301Z,26.61
2023-05-13T13:53:39.929Z,27.48
2023-05-13T13:56:07.122Z,27.56
2023-05-13T13:58:33.835Z,26.98
2023-05-13T14:01:00.469Z,27.45
2023-05-13T14:03:27.352Z,27.67
2023-05-13T14:05:55.306Z,26.82
2023-05-13T14:08:21.953Z,27.52
2023-05-13T14:10:48.591Z,27.69
2023-05-13T14:13:15.208Z,27.49
2023-05-13T14:15:41.809Z,27.56
2023-05-13T14:18:08.578Z,28.13
2023-05-13T14:20:35.900Z,27.82
2023-05-13T14:23:03.836Z,27.47
2023-05-13T14:25:32.344Z,27.25
2023-05-13T14:27:58.905Z,26.24
2023-05-13T14:30:27.776Z,27.10
2023-05-13T14:32:54.643Z,26.90
2023-05-13T14:35:21.374Z,26.64
2023-05-13T14:37:47.949Z,26.65
2023-05-13T14:40:14.617Z,26.26
2023-05-13T14:42:41.290Z,25.93
2023-05-13T14:45:09.298Z,25.79
2023-05-13T14:47:37.577Z,25.61
2023-05-13T14:50:04.584Z,25.64
2023-05-13T14:52:31.349Z,24.84
2023-05-13T14:54:57.999Z,25.79
2023-05-13T14:57:24.618Z,25.25
2023-05-13T14:59:51.220Z,25.33
2023-05-13T15:02:17.970Z,25.59
2023-05-13T15:04:44.718Z,25.23
2023-05-13T15:07:11.398Z,25.87
2023-05-13T15:09:38.014Z,25.69
2023-05-13T15:12:04.940Z,25.05
2023-05-13T15:14:31.547Z,25.39
2023-05-13T15:16:58.304Z,25.77
2023-05-13T15:19:24.986Z,25.71
2023-05-13T15:21:51.586Z,25.68
2023-05-13T15:24:18.219Z,25.06
2023-05-13T15:26:44.773Z,25.69
2023-05-13T15:29:11.346Z,26.41
2023-05-13T15:31:37.949Z,24.85
2023-05-13T15:34:04.586Z,25.64
2023-05-13T15:36:32.795Z,25.56
2023-05-13T15:39:00.535Z,24.83
2023-05-13T15:41:28.834Z,25.50
2023-05-13T15:43:55.543Z,25.87
2023-05-13T15:46:23.955Z,25.20
2023-05-13T15:48:50.651Z,26.52
2023-05-13T15:51:18.316Z,26.13
2023-05-13T15:53:44.867Z,27.48
2023-05-13T15:56:11.545Z,26.72
2023-05-13T15:58:38.200Z,25.35
2023-05-13T16:01:05.028Z,24.94
2023-05-13T16:03:31.702Z,25.53
2023-05-13T16:05:58.482Z,25.58
2023-05-13T16:08:25.295Z,28.29
2023-05-13T16:10:51.858Z,34.07
2023-05-13T16:13:18.525Z,34.53
2023-05-13T16:15:45.101Z,35.81
2023-05-13T16:18:11.834Z,36.64
2023-05-13T16:20:38.534Z,36.68
2023-05-13T16:23:05.221Z,36.13
2023-05-13T16:25:32.052Z,34.95
2023-05-13T16:27:58.847Z,36.48
2023-05-13T16:30:25.649Z,38.53
2023-05-13T16:32:55.058Z,40.48
2023-05-13T16:35:22.126Z,41.91
2023-05-13T16:37:49.629Z,42.06
2023-05-13T16:40:16.402Z,41.85
2023-05-13T16:42:43.225Z,41.60
2023-05-13T16:45:10.095Z,42.72
2023-05-13T16:47:37.926Z,42.15
2023-05-13T16:50:05.022Z,42.57
2023-05-13T16:52:32.601Z,42.66
2023-05-13T16:54:59.370Z,43.03
2023-05-13T16:57:26.130Z,42.71
2023-05-13T16:59:52.675Z,42.20
2023-05-13T17:02:19.325Z,42.55
2023-05-13T17:04:45.934Z,42.79
2023-05-13T17:07:12.527Z,42.61
2023-05-13T17:09:39.134Z,43.68
2023-05-13T17:12:06.067Z,43.42
2023-05-13T17:14:32.656Z,43.60
2023-05-13T17:16:59.322Z,43.26
2023-05-13T17:19:25.928Z,41.07
2023-05-13T17:21:52.701Z,40.10
2023-05-13T17:24:19.364Z,41.59
2023-05-13T17:26:45.960Z,41.06
2023-05-13T17:29:12.514Z,42.16
2023-05-13T17:31:39.331Z,43.65
2023-05-13T17:34:06.376Z,43.40
2023-05-13T17:36:33.214Z,45.06
2023-05-13T17:38:59.797Z,45.64
2023-05-13T17:41:26.428Z,46.07
2023-05-13T17:43:53.054Z,46.52
2023-05-13T17:46:19.608Z,46.92
2023-05-13T17:48:46.350Z,47.23
2023-05-13T17:51:12.953Z,47.19
2023-05-13T17:53:39.581Z,46.95
2023-05-13T17:56:08.295Z,45.73
2023-05-13T17:58:34.886Z,45.63
2023-05-13T18:01:01.555Z,46.07
2023-05-13T18:03:28.442Z,46.63
2023-05-13T18:05:55.304Z,47.32
2023-05-13T18:08:21.891Z,47.98
2023-05-13T18:10:48.784Z,48.59
2023-05-13T18:13:15.439Z,48.51
2023-05-13T18:15:42.169Z,49.05
2023-05-13T18:18:09.883Z,50.21
2023-05-13T18:20:36.565Z,50.72
2023-05-13T18:23:03.158Z,50.63
2023-05-13T18:25:31.163Z,50.75
2023-05-13T18:27:57.743Z,51.37
2023-05-13T18:30:24.756Z,52.28
2023-05-13T18:32:51.593Z,52.94
2023-05-13T18:35:21.332Z,53.66
2023-05-13T18:37:47.966Z,51.98
2023-05-13T18:40:14.566Z,52.57
2023-05-13T18:42:41.148Z,52.75
2023-05-13T18:45:08.240Z,53.52
2023-05-13T18:47:34.963Z,53.69
2023-05-13T18:50:01.796Z,53.65
2023-05-13T18:52:28.387Z,54.56
2023-05-13T18:54:54.974Z,54.84
2023-05-13T18:57:21.718Z,55.20
2023-05-13T18:59:48.393Z,55.51
2023-05-13T19:02:15.379Z,56.34
2023-05-13T19:04:42.136Z,56.44
2023-05-13T19:07:08.722Z,57.87
2023-05-13T19:09:36.081Z,59.38
2023-05-13T19:12:02.873Z,60.31
2023-05-13T19:14:29.718Z,61.99
2023-05-13T19:16:56.408Z,62.44
2023-05-13T19:19:24.351Z,63.41
2023-05-13T19:21:51.139Z,64.92
2023-05-13T19:24:17.722Z,65.80
2023-05-13T19:26:44.386Z,67.01
2023-05-13T19:29:11.113Z,68.12
2023-05-13T19:31:37.905Z,70.10
2023-05-13T19:34:04.571Z,69.57
2023-05-13T19:36:31.796Z,71.19
2023-05-13T19:38:58.560Z,72.13
2023-05-13T19:41:25.266Z,73.07
2023-05-13T19:43:51.858Z,74.30
2023-05-13T19:46:18.602Z,75.05
2023-05-13T19:48:45.410Z,75.54
2023-05-13T19:51:11.986Z,76.42
2023-05-13T19:53:38.688Z,76.49
2023-05-13T19:56:05.332Z,77.77
2023-05-13T19:58:32.069Z,77.87
2023-05-13T20:00:59.182Z,79.18
2023-05-13T20:03:25.917Z,81.05
2023-05-13T20:05:53.962Z,81.06
2023-05-13T20:08:21.114Z,81.26
2023-05-13T20:10:47.741Z,82.74
2023-05-13T20:13:14.553Z,83.76
2023-05-13T20:15:42.248Z,84.89
2023-05-13T20:18:10.065Z,85.29
2023-05-13T20:20:36.940Z,86.53
2023-05-13T20:23:03.622Z,86.70
2023-05-13T20:25:30.342Z,89.05
2023-05-13T20:27:56.944Z,88.81
2023-05-13T20:30:23.979Z,89.13
2023-05-13T20:32:50.926Z,89.93
2023-05-13T20:35:17.557Z,90.38
2023-05-13T20:37:44.201Z,91.15
2023-05-13T20:40:12.384Z,91.35
2023-05-13T20:42:38.999Z,91.81
2023-05-13T20:45:08.104Z,91.82
2023-05-13T20:47:35.119Z,92.09
2023-05-13T20:50:01.764Z,93.11
2023-05-13T20:52:28.406Z,93.95
2023-05-13T20:54:55.039Z,94.52
2023-05-13T20:57:21.684Z,94.31
2023-05-13T20:59:50.431Z,95.39
2023-05-13T21:02:17.095Z,95.79
2023-05-13T21:04:43.686Z,96.19
2023-05-13T21:07:10.779Z,96.29
2023-05-13T21:09:37.445Z,98.21
2023-05-13T21:12:04.306Z,98.80
2023-05-13T21:14:30.980Z,98.90
2023-05-13T21:16:57.541Z,99.42
2023-05-13T21:19:25.009Z,99.94
2023-05-13T21:21:51.725Z,100.00
2023-05-13T21:24:20.005Z,100.00
2023-05-13T21:26:47.368Z,100.00
2023-05-13T21:29:13.942Z,100.00
2023-05-13T21:31:40.678Z,100.00
2023-05-13T21:34:07.346Z,100.00
2023-05-13T21:36:34.036Z,100.00
2023-05-13T21:39:00.719Z,100.00
2023-05-13T21:41:27.415Z,100.00
2023-05-13T21:43:53.984Z,100.00
2023-05-13T21:46:20.708Z,100.00
2023-05-13T21:48:47.438Z,100.00
2023-05-13T21:51:14.250Z,100.00
2023-05-13T21:53:40.823Z,100.00
2023-05-13T21:56:07.493Z,100.00
2023-05-13T21:58:34.096Z,100.00
2023-05-13T22:01:01.367Z,100.00
2023-05-13T22:03:28.173Z,100.00
2023-05-13T22:05:54.784Z,100.00
2023-05-13T22:08:22.421Z,100.00
2023-05-13T22:10:49.121Z,100.00
2023-05-13T22:13:15.762Z,100.00
2023-05-13T22:15:42.471Z,100.00
2023-05-13T22:18:09.387Z,100.00
2023-05-13T22:20:36.172Z,100.00
2023-05-13T22:23:02.833Z,100.00
2023-05-13T22:25:29.445Z,100.00
2023-05-13T22:27:56.167Z,100.00
2023-05-13T22:30:23.216Z,100.00
2023-05-13T22:32:51.760Z,100.00
2023-05-13T22:35:18.400Z,100.00
2023-05-13T22:37:45.060Z,100.00
2023-05-13T22:40:12.124Z,100.00
2023-05-13T22:42:38.732Z,100.00
2023-05-13T22:45:05.730Z,100.00
2023-05-13T22:47:32.394Z,100.00
2023-05-13T22:49:59.025Z,100.00
2023-05-13T22:52:25.677Z,100.00
2023-05-13T22:54:52.286Z,100.00
2023-05-13T22:57:18.872Z,100.00
2023-05-13T22:59:45.677Z,100.00
2023-05-13T23:02:12.276Z,100.00
2023-05-13T23:04:39.012Z,100.00
2023-05-13T23:07:05.747Z,100.00
2023-05-13T23:09:32.339Z,100.00
2023-05-13T23:11:58.881Z,100.00
2023-05-13T23:14:25.726Z,100.00
2023-05-13T23:16:52.338Z,100.00
2023-05-13T23:19:18.994Z,100.00
2023-05-13T23:21:45.604Z,100.00
2023-05-13T23:24:12.306Z,100.00
2023-05-13T23:26:38.939Z,100.00
2023-05-13T23:29:05.591Z,100.00
2023-05-13T23:31:32.257Z,100.00
2023-05-13T23:33:58.829Z,100.00
2023-05-13T23:36:25.449Z,100.00
2023-05-13T23:38:52.157Z,100.00
2023-05-13T23:41:18.778Z,100.00
2023-05-13T23:43:45.413Z,100.00
2023-05-13T23:46:12.086Z,100.00
2023-05-13T23:48:38.687Z,100.00
2023-05-13T23:51:05.746Z,100.00
2023-05-13T23:53:32.466Z,100.00
2023-05-13T23:55:59.045Z,100.00
2023-05-13T23:58:25.743Z,100.00
